createdAt,value
2022-10-02T00:00:38.944Z,91.61
2022-10-02T00:03:41.851Z,92.02
2022-10-02T00:06:46.765Z,91.15
2022-10-02T00:09:51.739Z,92.22
2022-10-02T00:12:57.047Z,91.04
2022-10-02T00:16:01.509Z,94.98
2022-10-02T00:19:04.077Z,94.45
2022-10-02T00:22:26.741Z,94.68
2022-10-02T00:25:37.753Z,96.14
2022-10-02T00:28:58.533Z,97.82
2022-10-02T00:32:00.422Z,94.83
2022-10-02T00:35:21.701Z,95.01
2022-10-02T00:38:38.536Z,94.06
2022-10-02T00:41:58.749Z,91.62
2022-10-02T00:45:00.630Z,92.20
2022-10-02T00:48:30.220Z,90.67
2022-10-02T00:51:32.056Z,90.73
2022-10-02T00:54:46.307Z,89.00
2022-10-02T00:58:00.515Z,88.98
2022-10-02T01:01:05.841Z,84.38
2022-10-02T01:04:15.697Z,82.97
2022-10-02T01:07:18.751Z,82.31
2022-10-02T01:10:27.751Z,82.66
2022-10-02T01:13:30.698Z,83.37
2022-10-02T01:16:32.761Z,84.30
2022-10-02T01:19:34.939Z,85.48
2022-10-02T01:22:55.897Z,85.12
2022-10-02T01:25:58.957Z,85.16
2022-10-02T01:29:00.871Z,85.08
2022-10-02T01:32:03.206Z,84.63
2022-10-02T01:35:05.600Z,85.78
2022-10-02T01:38:09.865Z,84.86
2022-10-02T01:41:12.253Z,83.90
2022-10-02T01:44:14.916Z,82.37
2022-10-02T01:47:19.824Z,82.46
2022-10-02T01:50:24.965Z,83.77
2022-10-02T01:53:53.278Z,84.08
2022-10-02T01:56:58.178Z,85.24
2022-10-02T02:00:15.675Z,84.68
2022-10-02T02:03:35.944Z,84.19
2022-10-02T02:06:47.066Z,85.77
2022-10-02T02:09:56.390Z,85.97
2022-10-02T02:13:04.584Z,87.00
2022-10-02T02:16:11.453Z,87.79
2022-10-02T02:19:20.617Z,88.25
2022-10-02T02:22:24.550Z,88.24
2022-10-02T02:25:28.639Z,88.48
2022-10-02T02:28:32.601Z,89.93
2022-10-02T02:31:40.397Z,89.16
2022-10-02T02:34:44.989Z,89.33
2022-10-02T02:37:48.412Z,89.85
2022-10-02T02:40:51.207Z,89.81
2022-10-02T02:43:59.627Z,90.15
2022-10-02T02:47:07.443Z,90.04
2022-10-02T02:50:18.221Z,90.53
2022-10-02T02:53:22.915Z,90.92
2022-10-02T02:56:26.793Z,89.89
2022-10-02T02:59:31.390Z,90.43
2022-10-02T03:02:33.700Z,90.58
2022-10-02T03:05:38.654Z,91.61
2022-10-02T03:08:40.885Z,91.53
2022-10-02T03:11:52.032Z,91.15
2022-10-02T03:14:57.330Z,91.75
2022-10-02T03:18:16.950Z,92.33
2022-10-02T03:21:26.147Z,92.75
2022-10-02T03:24:43.219Z,91.75
2022-10-02T03:27:48.454Z,92.89
2022-10-02T03:30:53.123Z,92.24
2022-10-02T03:33:57.498Z,92.33
2022-10-02T03:36:59.682Z,92.93
2022-10-02T03:40:02.022Z,93.08
2022-10-02T03:43:04.631Z,93.54
2022-10-02T03:46:06.886Z,93.21
2022-10-02T03:49:08.871Z,93.75
2022-10-02T03:52:15.272Z,92.14
2022-10-02T03:55:27.847Z,92.12
2022-10-02T03:58:30.133Z,91.92
2022-10-02T04:01:33.582Z,93.73
2022-10-02T04:04:42.418Z,93.92
2022-10-02T04:07:51.714Z,92.60
2022-10-02T04:11:07.934Z,92.50
2022-10-02T04:14:25.770Z,93.54
2022-10-02T04:17:33.121Z,93.51
2022-10-02T04:20:34.977Z,94.98
2022-10-02T04:23:40.789Z,94.94
2022-10-02T04:26:48.744Z,94.49
2022-10-02T04:30:02.891Z,97.91
2022-10-02T04:33:12.734Z,97.21
2022-10-02T04:36:30.258Z,98.31
2022-10-02T04:39:46.668Z,98.57
2022-10-02T04:42:57.093Z,98.88
2022-10-02T04:46:14.289Z,95.27
2022-10-02T04:49:16.479Z,92.70
2022-10-02T04:52:27.241Z,90.24
2022-10-02T04:55:35.486Z,90.26
2022-10-02T04:59:00.115Z,91.62
2022-10-02T05:02:13.433Z,90.17
2022-10-02T05:05:25.492Z,90.57
2022-10-02T05:08:42.789Z,88.92
2022-10-02T05:11:44.675Z,88.90
2022-10-02T05:15:05.329Z,88.41
2022-10-02T05:18:25.814Z,87.38
2022-10-02T05:21:43.513Z,85.03
2022-10-02T05:24:57.843Z,85.02
2022-10-02T05:28:06.054Z,84.28
2022-10-02T05:31:11.210Z,82.62
2022-10-02T05:34:19.293Z,82.09
2022-10-02T05:37:24.299Z,82.43
2022-10-02T05:40:30.170Z,80.18
2022-10-02T05:43:44.496Z,76.91
2022-10-02T05:46:52.490Z,69.39
2022-10-02T05:50:00.370Z,56.13
2022-10-02T05:53:10.626Z,48.52
2022-10-02T05:56:16.712Z,41.94
2022-10-02T05:59:24.684Z,40.92
2022-10-02T06:02:45.400Z,38.60
2022-10-02T06:05:50.394Z,38.31
2022-10-02T06:08:59.268Z,42.66
2022-10-02T06:12:06.949Z,49.14
2022-10-02T06:15:22.648Z,54.19
2022-10-02T06:18:26.977Z,58.55
2022-10-02T06:21:35.923Z,60.44
2022-10-02T06:24:47.074Z,61.96
2022-10-02T06:27:53.760Z,63.96
2022-10-02T06:31:02.482Z,65.07
2022-10-02T06:34:04.643Z,65.14
2022-10-02T06:37:20.121Z,66.39
2022-10-02T06:40:21.993Z,66.46
2022-10-02T06:43:45.095Z,67.68
2022-10-02T06:47:22.850Z,68.00
2022-10-02T06:50:34.060Z,62.97
2022-10-02T06:53:38.945Z,63.05
2022-10-02T06:56:59.615Z,65.91
2022-10-02T07:00:18.033Z,66.78
2022-10-02T07:03:30.337Z,69.38
2022-10-02T07:06:39.387Z,69.28
2022-10-02T07:09:48.371Z,69.07
2022-10-02T07:12:59.504Z,68.97
2022-10-02T07:16:11.922Z,70.28
2022-10-02T07:19:31.926Z,70.77
2022-10-02T07:22:45.617Z,69.06
2022-10-02T07:26:11.317Z,69.48
2022-10-02T07:29:29.366Z,69.72
2022-10-02T07:32:38.763Z,69.77
2022-10-02T07:35:40.902Z,70.22
2022-10-02T07:38:50.863Z,69.12
2022-10-02T07:41:53.045Z,69.94
2022-10-02T07:45:23.275Z,70.20
2022-10-02T07:48:32.811Z,69.99
2022-10-02T07:51:50.268Z,69.50
2022-10-02T07:54:57.281Z,69.50
2022-10-02T07:58:05.312Z,69.31
2022-10-02T08:01:27.890Z,69.42
2022-10-02T08:04:36.704Z,71.30
2022-10-02T08:07:39.149Z,68.73
2022-10-02T08:10:44.941Z,68.97
2022-10-02T08:14:00.204Z,68.90
2022-10-02T08:17:08.410Z,68.45
2022-10-02T08:20:13.280Z,68.36
2022-10-02T08:23:21.797Z,66.44
2022-10-02T08:26:42.962Z,66.13
2022-10-02T08:29:52.301Z,66.56
2022-10-02T08:32:54.338Z,66.02
2022-10-02T08:36:16.735Z,65.85
2022-10-02T08:39:37.626Z,65.29
2022-10-02T08:42:39.975Z,64.59
2022-10-02T08:45:54.269Z,63.60
2022-10-02T08:49:15.681Z,63.39
2022-10-02T08:52:20.601Z,64.88
2022-10-02T08:55:22.800Z,64.50
2022-10-02T08:58:30.806Z,62.85
2022-10-02T09:01:45.158Z,62.83
2022-10-02T09:05:13.315Z,62.99
2022-10-02T09:08:34.056Z,63.46
2022-10-02T09:11:51.452Z,62.86
2022-10-02T09:15:09.736Z,63.42
2022-10-02T09:18:16.707Z,63.48
2022-10-02T09:21:19.974Z,60.35
2022-10-02T09:24:28.269Z,61.46
2022-10-02T09:27:42.770Z,60.01
2022-10-02T09:31:03.806Z,59.84
2022-10-02T09:34:21.311Z,59.46
2022-10-02T09:37:35.483Z,58.83
2022-10-02T09:40:55.674Z,57.80
2022-10-02T09:44:21.013Z,59.08
2022-10-02T09:47:35.524Z,55.84
2022-10-02T09:50:37.394Z,56.37
2022-10-02T09:53:58.471Z,55.02
2022-10-02T09:57:19.162Z,54.98
2022-10-02T10:00:34.467Z,53.83
2022-10-02T10:03:52.104Z,51.49
2022-10-02T10:07:21.054Z,51.98
2022-10-02T10:10:41.561Z,51.27
2022-10-02T10:14:02.670Z,52.35
2022-10-02T10:17:05.643Z,52.41
2022-10-02T10:20:11.304Z,50.91
2022-10-02T10:23:36.354Z,51.34
2022-10-02T10:27:07.994Z,50.94
2022-10-02T10:30:11.064Z,52.15
2022-10-02T10:33:34.611Z,50.48
2022-10-02T10:37:01.828Z,48.70
2022-10-02T10:40:20.930Z,48.38
2022-10-02T10:43:32.356Z,47.94
2022-10-02T10:46:34.232Z,47.17
2022-10-02T10:49:49.192Z,47.34
2022-10-02T10:52:51.551Z,48.81
2022-10-02T10:55:59.537Z,50.24
2022-10-02T10:59:24.995Z,49.87
2022-10-02T11:02:40.095Z,50.05
2022-10-02T11:06:03.661Z,50.22
2022-10-02T11:09:26.458Z,48.25
2022-10-02T11:12:47.405Z,48.58
2022-10-02T11:16:07.214Z,49.74
2022-10-02T11:19:19.236Z,49.97
2022-10-02T11:22:33.440Z,51.58
2022-10-02T11:25:45.621Z,51.07
2022-10-02T11:28:51.225Z,51.41
2022-10-02T11:32:14.215Z,51.27
2022-10-02T11:35:19.592Z,44.60
2022-10-02T11:38:31.266Z,38.36
2022-10-02T11:41:46.689Z,35.69
2022-10-02T11:45:04.556Z,35.00
2022-10-02T11:48:12.665Z,35.51
2022-10-02T11:51:26.730Z,35.73
2022-10-02T11:54:45.544Z,39.09
2022-10-02T11:57:57.745Z,39.57
2022-10-02T12:01:08.477Z,39.17
2022-10-02T12:04:29.589Z,38.90
2022-10-02T12:07:44.227Z,38.22
2022-10-02T12:10:54.947Z,38.83
2022-10-02T12:14:01.128Z,37.71
2022-10-02T12:17:21.967Z,39.06
2022-10-02T12:20:55.360Z,41.15
2022-10-02T12:24:19.373Z,42.97
2022-10-02T12:27:30.526Z,48.07
2022-10-02T12:30:40.640Z,49.55
2022-10-02T12:33:50.813Z,48.84
2022-10-02T12:37:01.890Z,51.35
2022-10-02T12:40:12.983Z,53.25
2022-10-02T12:43:24.554Z,55.34
2022-10-02T12:46:46.048Z,57.16
2022-10-02T12:50:11.684Z,58.21
2022-10-02T12:53:19.764Z,60.00
2022-10-02T12:56:43.663Z,60.71
2022-10-02T12:59:55.704Z,62.85
2022-10-02T13:03:10.243Z,61.08
2022-10-02T13:06:31.830Z,62.23
2022-10-02T13:09:52.546Z,62.94
2022-10-02T13:12:54.380Z,62.44
2022-10-02T13:16:02.651Z,61.14
2022-10-02T13:19:15.780Z,60.60
2022-10-02T13:22:20.701Z,60.34
2022-10-02T13:25:31.937Z,60.68
2022-10-02T13:28:59.209Z,59.98
2022-10-02T13:32:01.946Z,61.97
2022-10-02T13:35:19.391Z,61.08
2022-10-02T13:38:39.959Z,62.28
2022-10-02T13:42:00.779Z,62.84
2022-10-02T13:45:10.895Z,62.69
2022-10-02T13:48:32.071Z,65.30
2022-10-02T13:51:40.827Z,64.14
2022-10-02T13:54:52.158Z,63.81
2022-10-02T13:58:17.402Z,65.03
2022-10-02T14:01:25.398Z,65.54
2022-10-02T14:04:47.780Z,65.86
2022-10-02T14:08:06.432Z,65.41
2022-10-02T14:11:31.949Z,65.48
2022-10-02T14:14:46.042Z,66.01
2022-10-02T14:18:06.947Z,66.05
2022-10-02T14:21:14.715Z,64.79
2022-10-02T14:24:54.002Z,65.98
2022-10-02T14:27:55.904Z,65.59
2022-10-02T14:30:59.850Z,64.70
2022-10-02T14:34:04.827Z,64.51
2022-10-02T14:37:34.575Z,65.22
2022-10-02T14:40:50.831Z,66.36
2022-10-02T14:43:56.192Z,65.48
2022-10-02T14:46:59.358Z,65.31
2022-10-02T14:50:12.677Z,65.83
2022-10-02T14:53:33.115Z,65.72
2022-10-02T14:56:47.239Z,66.03
2022-10-02T15:00:05.986Z,65.82
2022-10-02T15:03:27.279Z,66.96
2022-10-02T15:06:37.371Z,67.21
2022-10-02T15:09:59.833Z,68.07
2022-10-02T15:13:24.378Z,69.24
2022-10-02T15:17:08.126Z,68.92
2022-10-02T15:20:12.786Z,69.62
2022-10-02T15:23:24.467Z,69.81
2022-10-02T15:26:36.270Z,71.05
2022-10-02T15:29:57.057Z,70.37
2022-10-02T15:33:08.885Z,71.51
2022-10-02T15:36:19.419Z,72.56
2022-10-02T15:39:27.297Z,73.19
2022-10-02T15:42:41.899Z,73.71
2022-10-02T15:46:11.182Z,74.56
2022-10-02T15:49:17.095Z,74.50
2022-10-02T15:52:24.842Z,74.89
2022-10-02T15:55:37.157Z,76.16
2022-10-02T15:58:42.059Z,77.15
2022-10-02T16:02:03.323Z,76.79
2022-10-02T16:05:30.268Z,78.12
2022-10-02T16:08:50.821Z,77.90
2022-10-02T16:12:17.317Z,79.18
2022-10-02T16:15:35.406Z,79.47
2022-10-02T16:18:57.847Z,78.98
2022-10-02T16:22:26.112Z,80.54
2022-10-02T16:25:44.744Z,80.38
2022-10-02T16:29:05.295Z,80.23
2022-10-02T16:32:27.718Z,80.15
2022-10-02T16:35:48.482Z,80.63
2022-10-02T16:39:03.947Z,80.53
2022-10-02T16:42:22.733Z,79.89
2022-10-02T16:45:43.149Z,79.99
2022-10-02T16:48:58.069Z,79.50
2022-10-02T16:52:03.371Z,80.35
2022-10-02T16:55:05.247Z,80.57
2022-10-02T16:58:24.947Z,81.16
2022-10-02T17:01:35.501Z,81.44
2022-10-02T17:04:37.622Z,81.10
2022-10-02T17:07:52.990Z,82.52
2022-10-02T17:10:55.511Z,83.40
2022-10-02T17:14:05.237Z,83.42
2022-10-02T17:17:26.001Z,84.62
2022-10-02T17:20:48.214Z,84.20
2022-10-02T17:23:58.760Z,84.35
2022-10-02T17:27:09.432Z,84.70
2022-10-02T17:30:14.942Z,84.42
2022-10-02T17:33:22.858Z,84.75
2022-10-02T17:36:24.957Z,85.35
2022-10-02T17:39:27.316Z,86.16
2022-10-02T17:42:41.779Z,85.59
2022-10-02T17:45:49.668Z,84.68
2022-10-02T17:48:51.938Z,85.17
2022-10-02T17:52:22.582Z,84.72
2022-10-02T17:55:57.131Z,84.78
2022-10-02T17:59:16.444Z,85.46
2022-10-02T18:02:39.529Z,85.36
2022-10-02T18:05:47.677Z,84.70
2022-10-02T18:08:49.510Z,84.76
2022-10-02T18:12:10.138Z,84.92
2022-10-02T18:15:11.987Z,85.50
2022-10-02T18:18:14.099Z,85.02
2022-10-02T18:21:33.573Z,84.62
2022-10-02T18:24:47.916Z,85.41
2022-10-02T18:27:57.815Z,85.65
2022-10-02T18:31:03.188Z,86.55
2022-10-02T18:34:26.531Z,86.41
2022-10-02T18:37:48.935Z,87.27
2022-10-02T18:41:09.871Z,86.48
2022-10-02T18:44:34.167Z,87.50
2022-10-02T18:47:49.395Z,87.56
2022-10-02T18:51:03.037Z,86.74
2022-10-02T18:54:05.235Z,88.37
2022-10-02T18:57:07.654Z,86.72
2022-10-02T19:00:15.715Z,84.98
2022-10-02T19:03:28.615Z,85.16
2022-10-02T19:06:30.503Z,83.91
2022-10-02T19:09:32.730Z,84.29
2022-10-02T19:12:34.626Z,83.27
2022-10-02T19:15:37.742Z,83.42
2022-10-02T19:18:40.045Z,83.21
2022-10-02T19:21:42.227Z,83.21
2022-10-02T19:24:46.066Z,83.42
2022-10-02T19:27:49.840Z,83.34
2022-10-02T19:30:54.052Z,84.06
2022-10-02T19:34:02.357Z,83.24
2022-10-02T19:37:05.963Z,83.99
2022-10-02T19:40:15.797Z,84.07
2022-10-02T19:43:24.604Z,83.51
2022-10-02T19:46:33.146Z,82.95
2022-10-02T19:49:38.375Z,83.42
2022-10-02T19:52:43.779Z,83.84
2022-10-02T19:55:47.244Z,83.90
2022-10-02T19:58:50.959Z,83.59
2022-10-02T20:01:54.047Z,84.05
2022-10-02T20:04:59.046Z,83.14
2022-10-02T20:08:07.085Z,83.65
2022-10-02T20:11:14.759Z,84.16
2022-10-02T20:14:23.254Z,84.26
2022-10-02T20:17:25.636Z,84.49
2022-10-02T20:20:28.559Z,84.77
2022-10-02T20:23:32.671Z,86.16
2022-10-02T20:26:37.713Z,84.74
2022-10-02T20:29:46.966Z,85.04
2022-10-02T20:32:50.143Z,85.43
2022-10-02T20:35:56.024Z,85.98
2022-10-02T20:39:27.177Z,85.31
2022-10-02T20:42:35.554Z,85.20
2022-10-02T20:45:45.389Z,83.78
2022-10-02T20:49:07.965Z,84.62
2022-10-02T20:52:13.862Z,85.13
2022-10-02T20:55:30.282Z,86.15
2022-10-02T20:58:41.411Z,86.10
2022-10-02T21:01:55.843Z,85.69
2022-10-02T21:05:09.602Z,85.65
2022-10-02T21:08:30.555Z,86.48
2022-10-02T21:11:38.124Z,85.82
2022-10-02T21:15:01.452Z,85.63
2022-10-02T21:18:09.414Z,85.85
2022-10-02T21:21:23.750Z,85.80
2022-10-02T21:24:26.179Z,86.52
2022-10-02T21:27:37.734Z,87.70
2022-10-02T21:30:49.277Z,87.87
2022-10-02T21:34:03.502Z,87.66
2022-10-02T21:37:36.440Z,86.92
2022-10-02T21:40:58.585Z,87.38
2022-10-02T21:44:18.673Z,86.14
2022-10-02T21:47:21.727Z,87.12
2022-10-02T21:50:36.119Z,88.27
2022-10-02T21:53:49.780Z,86.68
2022-10-02T21:57:10.409Z,86.96
2022-10-02T22:00:15.675Z,86.96
2022-10-02T22:03:23.590Z,87.06
2022-10-02T22:06:36.363Z,86.80
2022-10-02T22:09:47.426Z,87.16
2022-10-02T22:13:05.551Z,87.22
2022-10-02T22:16:16.933Z,86.62
2022-10-02T22:19:21.691Z,86.06
2022-10-02T22:22:23.788Z,86.71
2022-10-02T22:25:25.979Z,86.66
2022-10-02T22:28:47.002Z,86.19
2022-10-02T22:32:26.433Z,86.94
2022-10-02T22:35:28.957Z,87.54
2022-10-02T22:38:36.712Z,87.46
2022-10-02T22:41:54.256Z,87.16
2022-10-02T22:45:00.424Z,87.35
2022-10-02T22:48:22.850Z,88.14
2022-10-02T22:51:35.266Z,87.37
2022-10-02T22:54:47.341Z,88.52
2022-10-02T22:57:55.693Z,88.08
2022-10-02T23:01:16.926Z,88.71
2022-10-02T23:04:18.888Z,88.46
2022-10-02T23:07:31.077Z,88.46
2022-10-02T23:10:46.614Z,89.25
2022-10-02T23:13:52.228Z,90.27
2022-10-02T23:17:03.150Z,89.03
2022-10-02T23:20:05.371Z,88.40
2022-10-02T23:23:23.322Z,89.69
2022-10-02T23:26:37.832Z,89.35
2022-10-02T23:29:45.709Z,88.43
2022-10-02T23:32:47.853Z,89.26
2022-10-02T23:35:55.909Z,89.28
2022-10-02T23:38:58.038Z,88.66
2022-10-02T23:42:00.049Z,88.37
2022-10-02T23:45:17.198Z,88.49
2022-10-02T23:48:19.940Z,88.64
2022-10-02T23:51:35.545Z,88.37
2022-10-02T23:54:37.413Z,88.11
2022-10-02T23:58:03.733Z,88.95
